Time;durP1;ratioP1;P1;durP2;ratioP2;P2;SDS_P1;SDS_P2;PMS_P1;PMS_P2;Temp;Humidity;BMP_temperature;BMP_pressure;BME280_temperature;BME280_humidity;BME280_pressure;Samples;Min_cycle;Max_cycle;Signal;HPM_P1;HPM_P2
2021/10/27 00:01:32;;;;;;;0.75;0.40;;;;;;;-145.06;100.00;60892.56;4886771;28;20032;-88
2021/10/27 00:04:11;;;;;;;0.90;0.43;;;;;;;-145.06;100.00;60892.56;4894807;28;20172;-91
2021/10/27 00:06:50;;;;;;;0.87;0.50;;;;;;;14.58;100.00;60892.56;4898074;28;20027;-89
2021/10/27 00:09:29;;;;;;;0.30;0.30;;;;;;;-145.06;100.00;60892.56;4897502;28;20027;-89
2021/10/27 00:12:08;;;;;;;0.40;0.40;;;;;;;-145.06;100.00;60892.56;4908744;28;20035;-89
2021/10/27 00:14:47;;;;;;;0.77;0.43;;;;;;;14.17;100.00;60892.56;4906353;28;20047;-89
2021/10/27 00:17:26;;;;;;;0.50;0.40;;;;;;;14.26;100.00;60892.56;4899590;28;20024;-90
2021/10/27 00:20:07;;;;;;;0.95;0.43;;;;;;;-145.06;100.00;60892.56;4896164;28;20032;-90
2021/10/27 00:22:46;;;;;;;1.77;0.50;;;;;;;14.58;100.00;60892.56;4901326;28;20107;-91
2021/10/27 00:25:25;;;;;;;0.43;0.40;;;;;;;-145.06;100.00;60892.56;4895881;28;20111;-90
2021/10/27 00:28:04;;;;;;;0.75;0.50;;;;;;;-145.06;100.00;60892.56;4910662;28;20040;-90
2021/10/27 00:30:43;;;;;;;0.47;0.45;;;;;;;-145.06;100.00;60892.56;4897746;28;20028;-90
2021/10/27 00:33:22;;;;;;;0.43;0.43;;;;;;;-145.06;100.00;60892.56;4897146;28;20028;-91
2021/10/27 00:36:01;;;;;;;1.15;0.75;;;;;;;-145.06;100.00;60892.56;4893572;28;20063;-90
2021/10/27 00:38:40;;;;;;;0.60;0.50;;;;;;;-145.06;100.00;60892.56;4898231;28;20036;-89
2021/10/27 00:41:19;;;;;;;0.45;0.45;;;;;;;-145.06;100.00;60892.56;4891081;28;20527;-91
2021/10/27 00:43:58;;;;;;;1.25;0.70;;;;;;;-145.06;100.00;60892.56;4910368;28;20350;-89
2021/10/27 00:46:37;;;;;;;1.23;0.60;;;;;;;14.24;100.00;60892.56;4897491;28;20032;-90
2021/10/27 00:49:16;;;;;;;0.87;0.60;;;;;;;-145.06;100.00;60892.56;4913516;28;20032;-91
2021/10/27 00:51:56;;;;;;;1.90;0.53;;;;;;;-145.06;100.00;60892.56;4900617;28;20028;-90
2021/10/27 00:54:35;;;;;;;0.70;0.60;;;;;;;14.30;100.00;60892.56;4903269;28;20024;-89
2021/10/27 00:57:17;;;;;;;1.00;0.70;;;;;;;-145.06;100.00;60892.56;4912881;28;20063;-88
2021/10/27 00:59:56;;;;;;;0.82;0.60;;;;;;;-145.06;100.00;60892.56;4897630;28;20024;-90
2021/10/27 01:02:35;;;;;;;1.50;0.80;;;;;;;-145.06;100.00;60892.56;4896739;28;20485;-88
2021/10/27 01:05:15;;;;;;;1.15;0.73;;;;;;;-145.06;100.00;60892.56;4894101;28;20039;-89
2021/10/27 01:07:54;;;;;;;1.00;0.88;;;;;;;-145.06;100.00;60892.56;4897735;28;20028;-89
2021/10/27 01:10:33;;;;;;;1.33;0.65;;;;;;;-145.06;100.00;60892.56;4897160;28;20292;-90
2021/10/27 01:13:12;;;;;;;1.33;0.80;;;;;;;-145.06;100.00;60892.56;4912846;28;20060;-90
2021/10/27 01:15:51;;;;;;;1.95;1.00;;;;;;;14.58;100.00;60892.56;4895309;28;20424;-89
2021/10/27 01:18:30;;;;;;;1.52;0.85;;;;;;;15.88;100.00;60892.56;4891742;28;20331;-90
2021/10/27 01:21:10;;;;;;;0.80;0.60;;;;;;;14.20;100.00;60892.56;4878632;28;20115;-89
2021/10/27 01:23:49;;;;;;;1.20;0.70;;;;;;;-145.06;100.00;60892.56;4909107;28;20273;-89
2021/10/27 01:26:28;;;;;;;1.25;0.60;;;;;;;-145.06;100.00;60892.56;4912033;28;20032;-90
2021/10/27 01:29:07;;;;;;;1.10;0.70;;;;;;;-145.06;100.00;60892.56;4912060;28;20021;-90
2021/10/27 01:31:46;;;;;;;1.60;0.60;;;;;;;-145.06;100.00;60892.56;4890318;28;20465;-90
2021/10/27 01:34:25;;;;;;;1.00;0.57;;;;;;;-145.06;100.00;60892.56;4900354;28;20266;-89
2021/10/27 01:37:05;;;;;;;1.67;0.60;;;;;;;-145.06;100.00;60892.56;4899814;28;20032;-89
2021/10/27 01:39:45;;;;;;;1.17;0.68;;;;;;;14.58;100.00;60892.56;4901088;28;20028;-90
2021/10/27 01:42:24;;;;;;;;;;;;;;;-145.06;100.00;60892.56;4900923;28;20023;-90
2021/10/27 01:45:04;;;;;;;0.60;0.52;;;;;;;-145.06;100.00;60892.56;4901369;28;19908;-89
2021/10/27 01:47:44;;;;;;;0.80;0.70;;;;;;;-145.06;100.00;60892.56;4904579;28;20515;-90
2021/10/27 01:50:23;;;;;;;1.10;0.77;;;;;;;-145.06;100.00;60892.56;4890122;28;20465;-90
2021/10/27 01:53:02;;;;;;;0.90;0.70;;;;;;;-145.06;100.00;60892.56;4899837;28;20350;-89
2021/10/27 01:55:42;;;;;;;1.95;0.60;;;;;;;-145.06;100.00;60892.56;4896213;28;20035;-89
2021/10/27 01:58:21;;;;;;;0.98;0.88;;;;;;;14.26;100.00;60892.56;4917011;28;20028;-90
2021/10/27 02:01:00;;;;;;;1.42;0.80;;;;;;;14.58;100.00;60892.56;4915196;28;20489;-90
2021/10/27 02:03:39;;;;;;;0.80;0.70;;;;;;;187.52;100.00;60892.56;4900898;28;20027;-89
2021/10/27 02:06:18;;;;;;;1.25;0.98;;;;;;;-145.06;100.00;60892.56;4900929;28;20031;-89
2021/10/27 02:08:57;;;;;;;1.25;0.80;;;;;;;-145.06;100.00;60892.56;4900652;28;20032;-90
2021/10/27 02:11:36;;;;;;;1.47;0.80;;;;;;;-145.06;100.00;60892.56;4892796;28;20028;-89
2021/10/27 02:14:15;;;;;;;1.95;0.77;;;;;;;-145.06;100.00;60892.56;4886444;28;20032;-89
2021/10/27 02:16:54;;;;;;;1.58;0.80;;;;;;;-145.06;100.00;60892.56;4910013;28;20040;-89
2021/10/27 02:19:33;;;;;;;1.45;0.60;;;;;;;14.26;100.00;60892.56;4903861;28;20350;-89
2021/10/27 02:22:12;;;;;;;1.40;0.70;;;;;;;-145.06;100.00;60892.56;4899178;28;20032;-88
2021/10/27 02:24:52;;;;;;;0.60;0.60;;;;;;;-145.06;100.00;60892.56;4899934;28;20031;-89
2021/10/27 02:27:31;;;;;;;1.60;0.68;;;;;;;-145.06;100.00;60892.56;4895892;28;20016;-89
2021/10/27 02:30:11;;;;;;;1.45;0.70;;;;;;;-145.06;100.00;60892.56;4916203;28;20028;-90
2021/10/27 02:32:50;;;;;;;1.05;0.70;;;;;;;-145.06;100.00;60892.56;4896797;28;20032;-89
2021/10/27 02:35:30;;;;;;;1.55;0.90;;;;;;;-145.06;100.00;60892.56;4927898;28;20411;-89
2021/10/27 02:38:10;;;;;;;0.82;0.70;;;;;;;-145.06;100.00;60892.56;4880932;28;20041;-89
2021/10/27 02:40:49;;;;;;;1.63;0.80;;;;;;;-145.06;100.00;60892.56;4889349;28;20028;-89
2021/10/27 02:43:28;;;;;;;1.87;0.80;;;;;;;182.32;100.00;60892.56;4894588;28;20047;-89
2021/10/27 02:46:07;;;;;;;1.25;0.70;;;;;;;-145.06;100.00;60892.56;4899616;28;20028;-89
2021/10/27 02:48:46;;;;;;;0.70;0.68;;;;;;;21.08;100.00;60892.56;4899368;28;20027;-90
2021/10/27 02:51:26;;;;;;;1.08;0.70;;;;;;;-145.06;100.00;60892.56;4894307;28;20493;-88
2021/10/27 02:54:05;;;;;;;1.38;0.98;;;;;;;-145.06;100.00;60892.56;4880377;28;20367;-89
2021/10/27 02:56:44;;;;;;;1.33;0.70;;;;;;;-145.06;100.00;60892.56;4881524;28;20099;-89
2021/10/27 02:59:23;;;;;;;2.88;0.68;;;;;;;-145.06;100.00;60892.56;4917753;27;20079;-88
2021/10/27 03:02:02;;;;;;;0.63;0.50;;;;;;;14.58;100.00;60892.56;4913159;28;20453;-89
2021/10/27 03:04:42;;;;;;;0.63;0.53;;;;;;;-145.06;100.00;60892.56;4899984;28;20464;-89
2021/10/27 03:07:21;;;;;;;;;;;;;;;-145.06;100.00;60892.56;4915475;28;20294;-90
2021/10/27 03:10:00;;;;;;;0.60;0.52;;;;;;;-145.06;100.00;60892.56;4899131;28;19955;-90
2021/10/27 03:12:39;;;;;;;0.90;0.50;;;;;;;-145.06;100.00;60892.56;4897000;28;20024;-89
2021/10/27 03:15:18;;;;;;;2.47;0.50;;;;;;;-145.06;100.00;60892.56;4895743;28;20032;-89
2021/10/27 03:17:57;;;;;;;1.15;0.70;;;;;;;-145.06;100.00;60892.56;4914969;28;20036;-91
2021/10/27 03:20:37;;;;;;;0.85;0.50;;;;;;;13.80;100.00;60892.56;4898825;28;20052;-90
2021/10/27 03:23:16;;;;;;;0.60;0.50;;;;;;;187.52;100.00;60892.56;4899871;28;20031;-90
2021/10/27 03:25:55;;;;;;;0.68;0.52;;;;;;;-145.06;100.00;60892.56;4899759;28;20024;-89
2021/10/27 03:28:34;;;;;;;1.00;0.60;;;;;;;-145.06;100.00;60892.56;4892646;28;20032;-89
2021/10/27 03:31:14;;;;;;;1.17;0.70;;;;;;;-145.06;100.00;60892.56;4902702;28;20036;-89
2021/10/27 03:33:52;;;;;;;0.90;0.60;;;;;;;-145.06;100.00;60892.56;4894053;28;20036;-89
2021/10/27 03:36:31;;;;;;;0.50;0.50;;;;;;;13.70;100.00;60892.56;4929485;28;20338;-89
2021/10/27 03:39:10;;;;;;;1.08;0.80;;;;;;;13.66;100.00;60892.56;4905648;28;20059;-89
2021/10/27 03:41:50;;;;;;;1.02;0.60;;;;;;;-145.06;100.00;60892.56;4897983;28;20032;-90
2021/10/27 03:44:29;;;;;;;1.10;0.50;;;;;;;-145.06;100.00;60892.56;4899006;28;20020;-89
2021/10/27 03:47:08;;;;;;;1.23;0.53;;;;;;;-145.06;100.00;60892.56;4898139;28;20705;-89
2021/10/27 03:49:48;;;;;;;1.50;0.40;;;;;;;-145.06;100.00;60892.56;4899550;28;20024;-88
2021/10/27 03:52:27;;;;;;;1.15;0.60;;;;;;;-145.06;100.00;60892.56;4882604;28;20024;-88
2021/10/27 03:55:06;;;;;;;0.73;0.50;;;;;;;-145.06;100.00;60892.56;4897018;28;20027;-89
2021/10/27 03:57:45;;;;;;;0.52;0.52;;;;;;;-145.06;100.00;60892.56;4899397;28;20484;-88
2021/10/27 04:00:25;;;;;;;1.33;0.43;;;;;;;-145.06;100.00;60892.56;4898221;28;20027;-89
2021/10/27 04:03:05;;;;;;;0.93;0.40;;;;;;;-145.06;100.00;60892.56;4895033;28;20263;-89
2021/10/27 04:05:44;;;;;;;0.75;0.40;;;;;;;14.58;100.00;60892.56;4910400;28;20028;-89
2021/10/27 04:08:23;;;;;;;3.80;0.77;;;;;;;-145.06;100.00;60892.56;4903390;28;20024;-89
2021/10/27 04:11:02;;;;;;;0.93;0.63;;;;;;;-145.06;100.00;60892.56;4898416;28;20032;-88
2021/10/27 04:13:41;;;;;;;0.80;0.50;;;;;;;-145.06;100.00;60892.56;4898353;28;20282;-88
2021/10/27 04:16:20;;;;;;;1.80;0.63;;;;;;;-145.06;100.00;60892.56;4898691;28;20027;-88
2021/10/27 04:18:59;;;;;;;1.15;0.50;;;;;;;-145.06;100.00;60892.56;4916478;28;20032;-89
2021/10/27 04:21:38;;;;;;;0.60;0.60;;;;;;;-145.06;100.00;60892.56;4898324;28;20465;-89
2021/10/27 04:24:18;;;;;;;1.37;0.73;;;;;;;13.61;100.00;60892.56;4900202;28;20024;-89
2021/10/27 04:26:57;;;;;;;0.38;0.38;;;;;;;-145.06;100.00;60892.56;4898924;28;20273;-89
2021/10/27 04:29:35;;;;;;;1.03;0.60;;;;;;;187.52;100.00;60892.56;4937419;28;20020;-87
2021/10/27 04:32:15;;;;;;;0.73;0.40;;;;;;;-145.06;100.00;60892.56;4915411;28;20032;-89
2021/10/27 04:34:54;;;;;;;1.02;0.40;;;;;;;15.88;100.00;60892.56;4898157;28;20028;-90
2021/10/27 04:37:38;;;;;;;0.65;0.47;;;;;;;13.19;100.00;60892.56;4890754;28;20351;-89
2021/10/27 04:40:18;;;;;;;0.50;0.40;;;;;;;187.52;100.00;60892.56;4919394;28;20469;-88
2021/10/27 04:42:58;;;;;;;1.58;0.70;;;;;;;13.18;100.00;60892.56;4895011;28;20454;-88
2021/10/27 04:45:37;;;;;;;0.57;0.45;;;;;;;13.16;100.00;60892.56;4888068;28;20028;-88
2021/10/27 04:48:16;;;;;;;1.33;0.73;;;;;;;13.14;100.00;60892.56;4898755;28;20358;-88
2021/10/27 04:50:56;;;;;;;1.02;0.60;;;;;;;13.13;100.00;60892.56;4903881;28;20071;-88
2021/10/27 04:53:35;;;;;;;0.40;0.40;;;;;;;-145.06;100.00;60892.56;4913438;28;20016;-89
2021/10/27 04:56:14;;;;;;;0.80;0.50;;;;;;;-145.06;100.00;60892.56;4898525;28;20477;-90
2021/10/27 04:58:53;;;;;;;0.40;0.40;;;;;;;-145.06;100.00;60892.56;4899074;28;20032;-90
2021/10/27 05:01:32;;;;;;;0.70;0.50;;;;;;;-145.06;100.00;60892.56;4898588;28;20028;-89
2021/10/27 05:04:11;;;;;;;0.88;0.32;;;;;;;13.01;100.00;80543.78;4898902;28;20353;-89
2021/10/27 05:06:50;;;;;;;0.50;0.47;;;;;;;21.08;100.00;60892.56;4913406;28;20027;-90
2021/10/27 05:09:29;;;;;;;1.52;0.80;;;;;;;-145.06;100.00;60892.56;4879938;28;20024;-89
2021/10/27 05:12:09;;;;;;;0.63;0.30;;;;;;;-145.06;100.00;60892.56;4909859;28;20485;-91
2021/10/27 05:14:48;;;;;;;0.77;0.43;;;;;;;-145.06;100.00;60892.56;4884534;28;20107;-89
2021/10/27 05:17:27;;;;;;;0.85;0.60;;;;;;;-145.06;100.00;60892.56;4902018;28;20330;-90
2021/10/27 05:20:07;;;;;;;0.70;0.40;;;;;;;-145.06;100.00;60892.56;4899996;28;20032;-90
2021/10/27 05:22:46;;;;;;;0.70;0.57;;;;;;;-145.06;100.00;60892.56;4903026;28;20266;-90
2021/10/27 05:25:25;;;;;;;0.70;0.47;;;;;;;-145.06;100.00;60892.56;4902375;28;20361;-91
2021/10/27 05:28:05;;;;;;;0.63;0.40;;;;;;;-145.06;100.00;60892.56;4902594;28;20270;-91
2021/10/27 05:30:46;;;;;;;0.40;0.40;;;;;;;-145.06;100.00;60892.56;4903010;28;20032;-90
2021/10/27 05:33:25;;;;;;;0.40;0.40;;;;;;;13.28;100.00;60892.56;4902334;28;20500;-91
2021/10/27 05:36:04;;;;;;;0.50;0.50;;;;;;;12.59;100.00;60892.56;4899598;28;20067;-90
2021/10/27 05:38:43;;;;;;;0.33;0.33;;;;;;;12.54;100.00;60892.56;4883195;28;20028;-90
2021/10/27 05:41:22;;;;;;;1.65;0.60;;;;;;;187.52;100.00;60892.56;4899780;28;20270;-90
2021/10/27 05:44:02;;;;;;;0.80;0.60;;;;;;;-145.06;100.00;60892.56;4902901;28;20020;-89
2021/10/27 05:46:43;;;;;;;0.60;0.50;;;;;;;-145.06;100.00;60892.56;4902369;28;20028;-90
2021/10/27 05:55:22;;;;;;;0.57;0.50;;;;;;;-145.06;100.00;60892.56;4909631;28;20036;-89
2021/10/27 05:58:03;;;;;;;0.60;0.43;;;;;;;-145.06;100.00;60892.56;4904170;28;20338;-89
2021/10/27 06:00:44;;;;;;;0.40;0.40;;;;;;;13.28;100.00;60892.56;4917920;28;20176;-90
2021/10/27 06:03:23;;;;;;;0.77;0.50;;;;;;;-145.06;100.00;60892.56;4913202;28;20327;-90
2021/10/27 06:06:02;;;;;;;0.70;0.40;;;;;;;-145.06;100.00;60892.56;4919204;28;20230;-89
2021/10/27 06:08:41;;;;;;;0.70;0.57;;;;;;;-145.06;100.00;60892.56;4900425;28;20036;-89
2021/10/27 06:11:20;;;;;;;0.40;0.40;;;;;;;-145.06;100.00;60892.56;4894754;28;20461;-90
2021/10/27 06:14:01;;;;;;;0.73;0.60;;;;;;;-145.06;100.00;60892.56;4900942;28;20031;-91
2021/10/27 06:16:43;;;;;;;0.77;0.68;;;;;;;-145.06;100.00;60892.56;4898357;28;20110;-90
2021/10/27 06:19:22;;;;;;;0.80;0.60;;;;;;;-145.06;100.00;60892.56;4901311;28;20023;-90
2021/10/27 06:22:02;;;;;;;1.00;0.80;;;;;;;11.96;100.00;60892.56;4896467;28;20040;-89
2021/10/27 06:24:40;;;;;;;0.70;0.60;;;;;;;-145.06;100.00;60892.56;4916866;28;20477;-89
2021/10/27 06:27:19;;;;;;;0.60;0.60;;;;;;;-145.06;100.00;60892.56;4899057;28;20024;-89
2021/10/27 06:35:39;;;;;;;0.68;0.47;;;;;;;11.79;100.00;60892.56;4914825;28;20024;-90
2021/10/27 06:38:33;;;;;;;0.40;0.40;;;;;;;-145.06;100.00;60892.56;4915639;28;20052;-90
2021/10/27 06:47:08;;;;;;;2.38;0.45;;;;;;;11.76;100.00;60892.56;4910778;28;20357;-89
2021/10/27 06:49:48;;;;;;;0.45;0.40;;;;;;;-145.06;100.00;60892.56;4909116;28;20426;-89
2021/10/27 06:52:27;;;;;;;0.43;0.43;;;;;;;-145.06;100.00;60892.56;4882860;28;20028;-89
2021/10/27 06:55:06;;;;;;;0.60;0.60;;;;;;;-145.06;100.00;60892.56;4896843;28;20016;-89
2021/10/27 06:57:45;;;;;;;;;;;;;;;-145.06;100.00;60892.56;4916699;28;20423;-89
2021/10/27 07:06:07;;;;;;;1.55;0.50;;;;;;;-145.06;100.00;60892.56;4917767;28;20020;-90
2021/10/27 07:17:57;;;;;;;0.85;0.63;;;;;;;-145.06;100.00;60892.56;4835170;28;20029;-89
2021/10/27 07:20:36;;;;;;;0.60;0.50;;;;;;;-145.06;100.00;60892.56;4896870;28;20310;-89
2021/10/27 07:23:15;;;;;;;1.33;0.60;;;;;;;-145.06;100.00;60892.56;4891706;28;20465;-88
2021/10/27 07:25:58;;;;;;;0.98;0.52;;;;;;;-145.06;100.00;60892.56;4890392;28;20036;-90
2021/10/27 07:28:37;;;;;;;0.60;0.40;;;;;;;-145.06;100.00;60892.56;4920293;28;20024;-88
2021/10/27 07:31:16;;;;;;;0.40;0.40;;;;;;;-145.06;100.00;60892.56;4915381;28;20032;-89
2021/10/27 07:33:59;;;;;;;0.70;0.52;;;;;;;-145.06;100.00;60892.56;4897094;28;20044;-89
2021/10/27 07:42:18;;;;;;;0.60;0.50;;;;;;;-145.06;100.00;60892.56;4910210;28;20436;-88
2021/10/27 07:44:57;;;;;;;1.17;0.70;;;;;;;-145.06;100.00;60892.56;4889223;28;20024;-88
2021/10/27 07:47:36;;;;;;;0.90;0.60;;;;;;;-145.06;100.00;60892.56;4909739;28;20354;-88
2021/10/27 07:50:14;;;;;;;0.93;0.70;;;;;;;-145.06;100.00;60892.56;4895574;28;20020;-89
2021/10/27 07:52:57;;;;;;;1.10;0.70;;;;;;;13.28;100.00;60892.56;4893411;28;20892;-88
2021/10/27 07:55:44;;;;;;;0.93;0.68;;;;;;;-145.06;100.00;60892.56;4907823;28;20028;-90
2021/10/27 07:58:25;;;;;;;1.55;0.60;;;;;;;-145.06;100.00;60892.56;4899057;28;20107;-89
2021/10/27 08:01:04;;;;;;;0.60;0.60;;;;;;;13.28;100.00;60892.56;4901172;28;20044;-89
2021/10/27 08:03:43;;;;;;;1.15;0.60;;;;;;;187.52;100.00;60892.56;4917586;28;20028;-90
2021/10/27 08:06:22;;;;;;;0.88;0.50;;;;;;;12.92;100.00;60892.56;4908352;28;20055;-89
2021/10/27 08:09:01;;;;;;;0.88;0.68;;;;;;;-145.06;100.00;60892.56;4892347;28;20020;-88
2021/10/27 08:11:40;;;;;;;0.80;0.40;;;;;;;13.03;100.00;60892.56;4901264;28;20035;-89
2021/10/27 08:14:19;;;;;;;0.80;0.70;;;;;;;-145.06;100.00;60892.56;4898504;28;20032;-88
2021/10/27 08:16:58;;;;;;;2.22;0.70;;;;;;;-145.06;100.00;60892.56;4911187;28;20032;-89
2021/10/27 08:19:37;;;;;;;1.55;0.77;;;;;;;13.18;100.00;60892.56;4910010;28;20036;-88
2021/10/27 08:22:16;;;;;;;2.67;0.80;;;;;;;13.22;100.00;60892.56;4913815;28;20031;-88
2021/10/27 08:24:55;;;;;;;1.20;0.70;;;;;;;-145.06;100.00;60892.56;4898736;28;20036;-88
2021/10/27 08:27:36;;;;;;;1.70;1.13;;;;;;;14.58;100.00;60892.56;4911606;28;20469;-88
2021/10/27 08:30:18;;;;;;;2.10;1.10;;;;;;;-145.06;100.00;60892.56;4896867;28;20457;-88
2021/10/27 08:33:00;;;;;;;1.13;0.80;;;;;;;-145.06;100.00;60892.56;4903303;28;20028;-89
2021/10/27 08:35:40;;;;;;;1.88;0.80;;;;;;;-145.06;100.00;60892.56;4897301;28;20024;-88
2021/10/27 08:38:19;;;;;;;1.20;0.73;;;;;;;-145.06;100.00;60892.56;4892403;28;20028;-87
2021/10/27 08:41:01;;;;;;;1.35;0.93;;;;;;;-145.06;100.00;60892.56;4894995;28;20027;-89
2021/10/27 08:43:40;;;;;;;1.40;0.90;;;;;;;-145.06;100.00;60892.56;4890861;28;20036;-89
2021/10/27 08:46:20;;;;;;;1.60;0.80;;;;;;;-145.06;100.00;60892.56;4915738;28;20020;-88
2021/10/27 08:49:03;;;;;;;1.73;1.08;;;;;;;-145.06;100.00;60892.56;4892418;28;20524;-88
2021/10/27 08:51:43;;;;;;;1.65;1.00;;;;;;;-145.06;100.00;60892.56;4890734;28;20052;-88
2021/10/27 08:54:22;;;;;;;1.38;0.80;;;;;;;-145.06;100.00;60892.56;4898888;28;20020;-88
2021/10/27 08:57:07;;;;;;;0.90;0.70;;;;;;;-145.06;100.00;60892.56;4912194;28;20020;-88
2021/10/27 09:35:44;;;;;;;1.23;0.90;;;;;;;15.23;100.00;60892.56;4910559;28;20343;-88
2021/10/27 10:05:01;;;;;;;2.90;0.60;;;;;;;182.32;100.00;60892.56;4916575;28;20028;-89
2021/10/27 10:07:40;;;;;;;0.80;0.70;;;;;;;-145.06;100.00;60892.56;4898868;28;20031;-89
2021/10/27 10:10:20;;;;;;;0.60;0.50;;;;;;;15.88;100.00;60892.56;4900515;28;20270;-89
2021/10/27 10:13:00;;;;;;;1.20;0.60;;;;;;;15.35;100.00;60892.56;4913061;28;20382;-88
2021/10/27 10:15:39;;;;;;;1.80;0.60;;;;;;;-145.06;100.00;60892.56;4894474;28;20036;-88
2021/10/27 10:18:24;;;;;;;0.40;0.40;;;;;;;-145.06;100.00;60892.56;4901226;28;20024;-88
2021/10/27 10:21:03;;;;;;;0.85;0.70;;;;;;;-145.06;100.00;60892.56;4898334;28;20265;-89
2021/10/27 10:23:42;;;;;;;0.93;0.68;;;;;;;15.71;100.00;60892.56;4905037;28;20028;-88
2021/10/27 10:26:34;;;;;;;1.15;0.55;;;;;;;-145.06;100.00;60892.56;4884316;28;20524;-88
2021/10/27 10:30:01;;;;;;;1.20;0.60;;;;;;;-145.06;100.00;60892.56;4922491;28;20027;-89
2021/10/27 10:32:48;;;;;;;0.82;0.45;;;;;;;-145.06;100.00;60892.56;4846449;28;20030;-89
2021/10/27 10:35:41;;;;;;;1.98;0.50;;;;;;;-145.06;100.00;60892.56;4895543;28;20498;-88
2021/10/27 10:38:25;;;;;;;0.45;0.40;;;;;;;-145.06;100.00;60892.56;4902402;28;20031;-89
2021/10/27 10:44:41;;;;;;;4.18;0.52;;;;;;;-145.06;100.00;60892.56;4903316;28;20028;-89
2021/10/27 11:24:09;;;;;;;1.30;0.28;;;;;;;-145.06;100.00;60892.56;4904486;28;20024;-88
2021/10/27 11:39:19;;;;;;;0.63;0.30;;;;;;;-145.06;100.00;60892.56;4905593;28;20024;-89
2021/10/27 11:42:22;;;;;;;0.95;0.30;;;;;;;-145.06;100.00;60892.56;4894822;28;20432;-88
2021/10/27 11:48:26;;;;;;;0.20;0.20;;;;;;;-145.06;100.00;60892.56;4909505;28;20020;-87
2021/10/27 11:51:13;;;;;;;0.20;0.20;;;;;;;-145.06;100.00;60892.56;4892800;28;20350;-88
2021/10/27 11:53:52;;;;;;;0.20;0.20;;;;;;;19.45;100.00;60892.56;4889363;28;20028;-88
2021/10/27 11:56:31;;;;;;;0.52;0.30;;;;;;;-145.06;100.00;60892.56;4904532;28;20032;-88
2021/10/27 11:59:10;;;;;;;1.00;0.40;;;;;;;19.31;100.00;60892.56;4894030;28;20072;-88
2021/10/27 12:01:51;;;;;;;0.25;0.25;;;;;;;-145.06;100.00;60892.56;4891646;28;20036;-87
2021/10/27 12:04:33;;;;;;;0.30;0.20;;;;;;;-145.06;100.00;60892.56;4925009;28;20091;-88
2021/10/27 12:07:18;;;;;;;0.50;0.40;;;;;;;19.46;100.00;60892.56;4898280;28;20339;-88
2021/10/27 12:13:03;;;;;;;1.45;0.20;;;;;;;19.53;100.00;60892.56;4904868;28;20035;-88
2021/10/27 12:15:57;;;;;;;0.40;0.30;;;;;;;-145.06;100.00;60892.56;4885473;28;20032;-88
2021/10/27 12:18:36;;;;;;;0.40;0.30;;;;;;;-145.06;100.00;60892.56;4909042;28;20517;-87
2021/10/27 12:21:21;;;;;;;0.90;0.30;;;;;;;-145.06;100.00;60892.56;4891523;28;20111;-89
2021/10/27 12:24:02;;;;;;;0.50;0.30;;;;;;;187.52;100.00;60892.56;4890263;28;20485;-89
2021/10/27 12:26:44;;;;;;;1.05;0.45;;;;;;;19.40;100.00;60892.56;4890579;28;20110;-89
2021/10/27 12:29:26;;;;;;;0.93;0.38;;;;;;;-145.06;100.00;60892.56;4895119;28;20027;-88
2021/10/27 12:32:08;;;;;;;0.50;0.30;;;;;;;-145.06;100.00;60892.56;4903512;28;20036;-89
2021/10/27 12:34:53;;;;;;;0.85;0.32;;;;;;;19.53;100.00;60892.56;4886331;28;20039;-88
2021/10/27 12:40:29;;;;;;;0.40;0.30;;;;;;;-145.06;100.00;60892.56;4901305;28;20040;-88
2021/10/27 12:43:13;;;;;;;3.13;0.60;;;;;;;-145.06;100.00;60892.56;4889793;28;20353;-88
2021/10/27 12:45:55;;;;;;;0.93;0.28;;;;;;;-145.06;100.00;60892.56;4904959;28;20055;-89
2021/10/27 12:48:38;;;;;;;0.68;0.40;;;;;;;-145.06;100.00;60892.56;4891065;28;20362;-88
2021/10/27 12:51:28;;;;;;;1.83;0.65;;;;;;;19.45;100.00;60892.56;4889258;28;20358;-89
2021/10/27 12:54:07;;;;;;;2.05;0.63;;;;;;;-145.06;100.00;60892.56;4881517;28;20064;-88
2021/10/27 12:56:46;;;;;;;2.22;0.60;;;;;;;-145.06;100.00;60892.56;4900842;28;20185;-88
2021/10/27 12:59:31;;;;;;;0.45;0.30;;;;;;;-145.06;100.00;60892.56;4888732;28;20454;-87
2021/10/27 13:02:21;;;;;;;0.50;0.30;;;;;;;-145.06;100.00;60892.56;4888368;28;20358;-88
2021/10/27 13:05:11;;;;;;;0.50;0.30;;;;;;;-145.06;100.00;60892.56;4906421;28;20020;-88
2021/10/27 13:07:56;;;;;;;0.90;0.50;;;;;;;-145.06;100.00;60892.56;4893939;28;20361;-87
2021/10/27 13:10:47;;;;;;;0.85;0.40;;;;;;;-145.06;100.00;60892.56;4893696;28;20488;-89
2021/10/27 13:33:25;;;;;;;0.88;0.30;;;;;;;18.80;100.00;60892.56;4908204;28;20111;-89
2021/10/27 13:36:04;;;;;;;0.30;0.30;;;;;;;18.78;100.00;60892.56;4911092;28;20322;-89
2021/10/27 13:38:45;;;;;;;0.85;0.55;;;;;;;-145.06;100.00;60892.56;4895477;28;20039;-88
2021/10/27 13:41:24;;;;;;;0.20;0.20;;;;;;;19.78;100.00;60892.56;4899095;28;20024;-88
2021/10/27 13:44:12;;;;;;;0.68;0.50;;;;;;;-145.06;100.00;60892.56;4932231;28;20024;-88
2021/10/27 14:06:00;;;;;;;1.30;0.38;;;;;;;-145.06;100.00;60892.56;4909673;28;20020;-89
2021/10/27 14:07:27;;;;;;;0.73;0.45;;;;;;;-145.06;100.00;60892.56;4907246;28;20370;-88
2021/10/27 14:10:16;;;;;;;1.42;0.60;;;;;;;-145.06;100.00;60892.56;4896928;28;20127;-89
2021/10/27 14:13:08;;;;;;;;;;;;;;;-145.06;100.00;60892.56;4899194;28;20032;-88
2021/10/27 14:39:20;;;;;;;0.43;0.40;;;;;;;-145.06;100.00;60892.56;4911277;28;20028;-89
2021/10/27 15:20:14;;;;;;;0.35;0.22;;;;;;;17.86;100.00;60892.56;4904899;28;20032;-88
2021/10/27 15:25:47;;;;;;;0.77;0.50;;;;;;;-145.06;100.00;60892.56;4916636;28;20092;-89
2021/10/27 15:31:39;;;;;;;0.35;0.20;;;;;;;17.79;100.00;60892.56;4907094;28;20036;-90
2021/10/27 15:51:29;;;;;;;0.80;0.40;;;;;;;-145.06;100.00;60892.56;4906779;28;20035;-89
2021/10/27 15:54:08;;;;;;;0.88;0.40;;;;;;;-145.06;100.00;60892.56;4901699;28;20475;-89
2021/10/27 15:56:48;;;;;;;1.40;0.40;;;;;;;-145.06;100.00;60892.56;4891992;28;20366;-89
2021/10/27 15:59:28;;;;;;;0.30;0.30;;;;;;;-145.06;100.00;60892.56;4907963;28;20036;-88
2021/10/27 16:02:08;;;;;;;1.10;0.47;;;;;;;-145.06;100.00;60892.56;4891045;28;20533;-89
2021/10/27 16:04:47;;;;;;;0.70;0.40;;;;;;;-145.06;100.00;60892.56;4887017;28;20131;-89
2021/10/27 16:07:29;;;;;;;0.50;0.30;;;;;;;-145.06;100.00;60892.56;4905597;28;20036;-88
2021/10/27 16:10:14;;;;;;;0.82;0.40;;;;;;;17.03;100.00;60892.56;4909724;28;20558;-88
2021/10/27 16:12:53;;;;;;;0.55;0.40;;;;;;;18.48;100.00;60892.56;4892876;28;20028;-88
2021/10/27 16:18:15;;;;;;;0.70;0.50;;;;;;;-145.06;100.00;60892.56;4904251;28;20492;-88
2021/10/27 16:20:55;;;;;;;0.70;0.55;;;;;;;18.48;100.00;60892.56;4895334;28;20035;-89
2021/10/27 16:23:34;;;;;;;0.60;0.45;;;;;;;187.52;100.00;60892.56;4888226;28;20028;-89
2021/10/27 16:26:14;;;;;;;0.60;0.40;;;;;;;16.51;100.00;60892.56;4889472;28;20135;-89
2021/10/27 16:28:55;;;;;;;0.40;0.40;;;;;;;-145.06;100.00;60892.56;4896131;28;20518;-88
2021/10/27 16:31:35;;;;;;;0.77;0.60;;;;;;;16.38;100.00;60892.56;4890375;28;20363;-88
2021/10/27 16:34:14;;;;;;;1.23;0.70;;;;;;;17.18;100.00;60892.56;4909248;28;20024;-88
2021/10/27 16:36:53;;;;;;;0.80;0.60;;;;;;;-145.06;100.00;60892.56;4902508;28;20366;-89
2021/10/27 16:39:32;;;;;;;0.75;0.55;;;;;;;-145.06;100.00;60892.56;4892003;28;20028;-88
2021/10/27 16:42:12;;;;;;;1.00;0.53;;;;;;;16.53;100.00;60892.56;4903816;28;20059;-89
2021/10/27 16:44:52;;;;;;;0.80;0.60;;;;;;;-145.06;100.00;60892.56;4909125;28;20564;-89
2021/10/27 16:47:31;;;;;;;;;;;;;;;-145.06;100.00;60892.56;4886044;28;20465;-88
2021/10/27 16:50:12;;;;;;;1.27;0.53;;;;;;;-145.06;100.00;60892.56;4891522;28;19912;-88
2021/10/27 16:52:51;;;;;;;1.02;0.65;;;;;;;-145.06;100.00;60892.56;4899577;28;20028;-88
2021/10/27 16:55:31;;;;;;;1.48;0.60;;;;;;;15.69;100.00;60892.56;4902583;28;20040;-87
2021/10/27 16:58:10;;;;;;;0.82;0.52;;;;;;;187.52;100.00;60892.56;4889231;28;20039;-87
2021/10/27 17:00:49;;;;;;;0.50;0.50;;;;;;;15.55;100.00;60892.56;4882283;28;20432;-88
2021/10/27 17:03:37;;;;;;;0.73;0.63;;;;;;;-145.06;100.00;60892.56;4893808;28;20099;-87